sensor_id;sensor_type;location;lat;lon;timestamp;temperature;humidity
35463;DHT22;21578;47.892;9.970;2024-03-02T00:03:13;4.70;96.60
35463;DHT22;21578;47.892;9.970;2024-03-02T00:08:51;4.70;96.60
35463;DHT22;21578;47.892;9.970;2024-03-02T00:13:49;4.70;96.60
35463;DHT22;21578;47.892;9.970;2024-03-02T00:18:38;4.70;96.60
35463;DHT22;21578;47.892;9.970;2024-03-02T00:23:29;4.70;96.60
35463;DHT22;21578;47.892;9.970;2024-03-02T00:28:19;4.70;96.60
35463;DHT22;21578;47.892;9.970;2024-03-02T00:33:07;4.70;96.60
35463;DHT22;21578;47.892;9.970;2024-03-02T00:37:55;4.70;96.60
35463;DHT22;21578;47.892;9.970;2024-03-02T00:42:41;4.60;96.60
35463;DHT22;21578;47.892;9.970;2024-03-02T00:47:30;4.60;96.60
35463;DHT22;21578;47.892;9.970;2024-03-02T00:52:17;4.60;96.60
35463;DHT22;21578;47.892;9.970;2024-03-02T00:57:04;4.60;96.60
35463;DHT22;21578;47.892;9.970;2024-03-02T01:01:52;4.60;96.60
35463;DHT22;21578;47.892;9.970;2024-03-02T01:06:41;4.60;96.60
35463;DHT22;21578;47.892;9.970;2024-03-02T01:11:28;4.50;96.60
35463;DHT22;21578;47.892;9.970;2024-03-02T01:16:15;4.50;96.60
35463;DHT22;21578;47.892;9.970;2024-03-02T01:21:02;4.40;96.60
35463;DHT22;21578;47.892;9.970;2024-03-02T01:25:51;4.40;96.60
35463;DHT22;21578;47.892;9.970;2024-03-02T01:30:38;4.40;96.60
35463;DHT22;21578;47.892;9.970;2024-03-02T01:35:25;4.40;96.60
35463;DHT22;21578;47.892;9.970;2024-03-02T01:40:12;4.40;96.60
35463;DHT22;21578;47.892;9.970;2024-03-02T01:45:00;4.50;96.60
35463;DHT22;21578;47.892;9.970;2024-03-02T01:49:47;4.50;96.60
35463;DHT22;21578;47.892;9.970;2024-03-02T01:54:35;4.50;96.60
35463;DHT22;21578;47.892;9.970;2024-03-02T01:59:22;4.50;96.60
35463;DHT22;21578;47.892;9.970;2024-03-02T02:04:11;4.50;96.60
35463;DHT22;21578;47.892;9.970;2024-03-02T02:08:59;4.60;96.60
35463;DHT22;21578;47.892;9.970;2024-03-02T02:13:46;4.60;96.60
35463;DHT22;21578;47.892;9.970;2024-03-02T02:18:33;4.60;96.60
35463;DHT22;21578;47.892;9.970;2024-03-02T02:23:21;4.60;96.60
35463;DHT22;21578;47.892;9.970;2024-03-02T02:28:08;4.60;96.60
35463;DHT22;21578;47.892;9.970;2024-03-02T02:32:56;4.70;96.60
35463;DHT22;21578;47.892;9.970;2024-03-02T02:37:43;4.60;96.60
35463;DHT22;21578;47.892;9.970;2024-03-02T02:42:32;4.50;96.60
35463;DHT22;21578;47.892;9.970;2024-03-02T02:47:18;4.50;96.60
35463;DHT22;21578;47.892;9.970;2024-03-02T02:52:05;4.50;96.60
35463;DHT22;21578;47.892;9.970;2024-03-02T02:56:53;4.40;96.60
35463;DHT22;21578;47.892;9.970;2024-03-02T03:01:41;4.50;96.60
35463;DHT22;21578;47.892;9.970;2024-03-02T03:06:28;4.50;96.60
35463;DHT22;21578;47.892;9.970;2024-03-02T03:11:15;4.40;96.60
35463;DHT22;21578;47.892;9.970;2024-03-02T03:16:02;4.50;96.60
35463;DHT22;21578;47.892;9.970;2024-03-02T03:20:50;4.50;96.60
35463;DHT22;21578;47.892;9.970;2024-03-02T03:25:37;4.50;96.60
35463;DHT22;21578;47.892;9.970;2024-03-02T03:30:24;4.50;96.60
35463;DHT22;21578;47.892;9.970;2024-03-02T03:35:11;4.50;96.60
35463;DHT22;21578;47.892;9.970;2024-03-02T03:40:02;4.50;96.60
35463;DHT22;21578;47.892;9.970;2024-03-02T03:44:52;4.50;96.60
35463;DHT22;21578;47.892;9.970;2024-03-02T03:49:39;4.50;96.60
35463;DHT22;21578;47.892;9.970;2024-03-02T03:54:26;4.50;96.60
35463;DHT22;21578;47.892;9.970;2024-03-02T03:59:15;4.50;96.60
35463;DHT22;21578;47.892;9.970;2024-03-02T04:04:02;4.50;96.60
35463;DHT22;21578;47.892;9.970;2024-03-02T04:08:49;4.50;96.60
35463;DHT22;21578;47.892;9.970;2024-03-02T04:13:36;4.50;96.60
35463;DHT22;21578;47.892;9.970;2024-03-02T04:18:24;4.50;96.60
35463;DHT22;21578;47.892;9.970;2024-03-02T04:23:11;4.50;96.60
35463;DHT22;21578;47.892;9.970;2024-03-02T04:27:58;4.50;96.60
35463;DHT22;21578;47.892;9.970;2024-03-02T04:32:45;4.60;96.60
35463;DHT22;21578;47.892;9.970;2024-03-02T04:37:35;4.50;96.60
35463;DHT22;21578;47.892;9.970;2024-03-02T04:42:22;4.50;96.60
35463;DHT22;21578;47.892;9.970;2024-03-02T04:47:09;4.50;96.60
35463;DHT22;21578;47.892;9.970;2024-03-02T04:51:55;4.50;96.60
35463;DHT22;21578;47.892;9.970;2024-03-02T04:56:44;4.40;96.60
35463;DHT22;21578;47.892;9.970;2024-03-02T05:01:35;4.40;96.60
35463;DHT22;21578;47.892;9.970;2024-03-02T05:06:22;4.40;96.60
35463;DHT22;21578;47.892;9.970;2024-03-02T05:11:09;4.40;96.60
35463;DHT22;21578;47.892;9.970;2024-03-02T05:16:15;4.50;96.60
35463;DHT22;21578;47.892;9.970;2024-03-02T05:21:03;4.40;96.60
35463;DHT22;21578;47.892;9.970;2024-03-02T05:25:50;4.40;96.60
35463;DHT22;21578;47.892;9.970;2024-03-02T05:30:36;4.40;96.60
35463;DHT22;21578;47.892;9.970;2024-03-02T05:35:25;4.40;96.60
35463;DHT22;21578;47.892;9.970;2024-03-02T05:40:12;4.40;96.60
35463;DHT22;21578;47.892;9.970;2024-03-02T05:44:59;4.40;96.60
35463;DHT22;21578;47.892;9.970;2024-03-02T05:49:46;4.40;96.60
35463;DHT22;21578;47.892;9.970;2024-03-02T05:54:34;4.40;96.60
35463;DHT22;21578;47.892;9.970;2024-03-02T05:59:21;4.40;96.60
35463;DHT22;21578;47.892;9.970;2024-03-02T06:04:08;4.30;96.60
35463;DHT22;21578;47.892;9.970;2024-03-02T06:08:56;4.30;96.60
35463;DHT22;21578;47.892;9.970;2024-03-02T06:13:44;4.30;96.60
35463;DHT22;21578;47.892;9.970;2024-03-02T06:18:31;4.30;96.60
35463;DHT22;21578;47.892;9.970;2024-03-02T06:23:18;4.30;96.60
35463;DHT22;21578;47.892;9.970;2024-03-02T06:28:05;4.30;96.60
35463;DHT22;21578;47.892;9.970;2024-03-02T06:32:54;4.40;96.60
35463;DHT22;21578;47.892;9.970;2024-03-02T06:37:41;4.40;96.60
35463;DHT22;21578;47.892;9.970;2024-03-02T06:42:28;4.40;96.60
35463;DHT22;21578;47.892;9.970;2024-03-02T06:47:18;4.40;96.60
35463;DHT22;21578;47.892;9.970;2024-03-02T06:52:07;4.40;96.60
35463;DHT22;21578;47.892;9.970;2024-03-02T06:56:54;4.50;96.60
35463;DHT22;21578;47.892;9.970;2024-03-02T07:01:41;4.60;96.60
35463;DHT22;21578;47.892;9.970;2024-03-02T07:06:29;4.60;96.60
35463;DHT22;21578;47.892;9.970;2024-03-02T07:11:17;4.60;96.60
35463;DHT22;21578;47.892;9.970;2024-03-02T07:16:04;4.70;96.60
35463;DHT22;21578;47.892;9.970;2024-03-02T07:21:08;4.70;96.60
35463;DHT22;21578;47.892;9.970;2024-03-02T07:25:55;4.80;96.60
35463;DHT22;21578;47.892;9.970;2024-03-02T07:30:43;4.90;96.60
35463;DHT22;21578;47.892;9.970;2024-03-02T07:35:30;5.00;96.60
35463;DHT22;21578;47.892;9.970;2024-03-02T07:40:17;5.00;96.60
35463;DHT22;21578;47.892;9.970;2024-03-02T07:45:05;5.20;96.60
35463;DHT22;21578;47.892;9.970;2024-03-02T07:49:54;5.30;96.60
35463;DHT22;21578;47.892;9.970;2024-03-02T07:54:41;5.40;96.60
35463;DHT22;21578;47.892;9.970;2024-03-02T07:59:28;5.50;96.60
35463;DHT22;21578;47.892;9.970;2024-03-02T08:04:15;5.70;96.60
35463;DHT22;21578;47.892;9.970;2024-03-02T08:09:03;5.80;96.60
35463;DHT22;21578;47.892;9.970;2024-03-02T08:13:55;5.90;96.60
35463;DHT22;21578;47.892;9.970;2024-03-02T08:18:42;6.00;96.60
35463;DHT22;21578;47.892;9.970;2024-03-02T08:23:30;6.00;96.60
35463;DHT22;21578;47.892;9.970;2024-03-02T08:28:19;6.10;96.60
35463;DHT22;21578;47.892;9.970;2024-03-02T08:33:05;6.20;96.60
35463;DHT22;21578;47.892;9.970;2024-03-02T08:37:52;6.30;96.60
35463;DHT22;21578;47.892;9.970;2024-03-02T08:42:39;6.50;96.60
35463;DHT22;21578;47.892;9.970;2024-03-02T08:47:28;6.70;96.60
35463;DHT22;21578;47.892;9.970;2024-03-02T08:52:15;6.90;96.60
35463;DHT22;21578;47.892;9.970;2024-03-02T08:57:02;7.10;96.60
35463;DHT22;21578;47.892;9.970;2024-03-02T09:01:49;7.20;96.60
35463;DHT22;21578;47.892;9.970;2024-03-02T09:06:38;7.30;96.60
35463;DHT22;21578;47.892;9.970;2024-03-02T09:11:25;7.40;96.60
35463;DHT22;21578;47.892;9.970;2024-03-02T09:16:12;7.50;96.60
35463;DHT22;21578;47.892;9.970;2024-03-02T09:20:59;7.70;96.60
35463;DHT22;21578;47.892;9.970;2024-03-02T09:25:47;7.90;96.60
35463;DHT22;21578;47.892;9.970;2024-03-02T09:30:34;8.00;96.60
35463;DHT22;21578;47.892;9.970;2024-03-02T09:35:21;8.10;96.60
35463;DHT22;21578;47.892;9.970;2024-03-02T09:40:10;8.30;96.60
35463;DHT22;21578;47.892;9.970;2024-03-02T09:44:59;8.60;96.60
35463;DHT22;21578;47.892;9.970;2024-03-02T09:49:46;8.70;96.60
35463;DHT22;21578;47.892;9.970;2024-03-02T09:54:32;8.80;96.60
35463;DHT22;21578;47.892;9.970;2024-03-02T09:59:19;8.80;96.60
35463;DHT22;21578;47.892;9.970;2024-03-02T10:04:08;8.90;96.60
35463;DHT22;21578;47.892;9.970;2024-03-02T10:08:55;8.90;96.60
35463;DHT22;21578;47.892;9.970;2024-03-02T10:13:42;8.90;96.60
35463;DHT22;21578;47.892;9.970;2024-03-02T10:18:29;8.80;96.60
35463;DHT22;21578;47.892;9.970;2024-03-02T10:23:18;8.80;96.60
35463;DHT22;21578;47.892;9.970;2024-03-02T10:28:06;8.80;96.60
35463;DHT22;21578;47.892;9.970;2024-03-02T10:32:53;8.90;96.60
35463;DHT22;21578;47.892;9.970;2024-03-02T10:37:41;9.00;96.60
35463;DHT22;21578;47.892;9.970;2024-03-02T10:42:30;9.20;96.60
35463;DHT22;21578;47.892;9.970;2024-03-02T10:47:18;9.30;96.60
35463;DHT22;21578;47.892;9.970;2024-03-02T10:52:06;9.30;96.60
35463;DHT22;21578;47.892;9.970;2024-03-02T10:56:58;9.50;96.60
35463;DHT22;21578;47.892;9.970;2024-03-02T11:01:47;9.60;96.60
35463;DHT22;21578;47.892;9.970;2024-03-02T11:06:36;9.70;96.60
35463;DHT22;21578;47.892;9.970;2024-03-02T11:11:30;9.90;96.60
35463;DHT22;21578;47.892;9.970;2024-03-02T11:24:47;10.00;96.60
35463;DHT22;21578;47.892;9.970;2024-03-02T11:29:46;10.20;96.60
35463;DHT22;21578;47.892;9.970;2024-03-02T11:34:35;10.30;96.60
35463;DHT22;21578;47.892;9.970;2024-03-02T11:39:25;10.20;96.60
35463;DHT22;21578;47.892;9.970;2024-03-02T11:44:15;10.30;96.60
35463;DHT22;21578;47.892;9.970;2024-03-02T11:49:01;10.40;96.60
35463;DHT22;21578;47.892;9.970;2024-03-02T11:53:50;10.40;96.60
35463;DHT22;21578;47.892;9.970;2024-03-02T11:58:39;10.40;96.60
35463;DHT22;21578;47.892;9.970;2024-03-02T12:03:28;10.60;96.60
35463;DHT22;21578;47.892;9.970;2024-03-02T12:08:15;10.60;96.00
35463;DHT22;21578;47.892;9.970;2024-03-02T12:13:03;10.70;96.60
35463;DHT22;21578;47.892;9.970;2024-03-02T12:17:53;10.80;96.60
35463;DHT22;21578;47.892;9.970;2024-03-02T12:22:41;10.80;96.60
35463;DHT22;21578;47.892;9.970;2024-03-02T12:27:28;11.00;96.60
35463;DHT22;21578;47.892;9.970;2024-03-02T12:32:15;11.00;96.60
35463;DHT22;21578;47.892;9.970;2024-03-02T12:37:03;11.00;96.60
35463;DHT22;21578;47.892;9.970;2024-03-02T12:41:51;11.10;96.60
35463;DHT22;21578;47.892;9.970;2024-03-02T12:46:39;11.10;96.60
35463;DHT22;21578;47.892;9.970;2024-03-02T12:51:26;11.20;96.60
35463;DHT22;21578;47.892;9.970;2024-03-02T12:56:14;11.10;96.60
35463;DHT22;21578;47.892;9.970;2024-03-02T13:01:08;11.10;96.60
35463;DHT22;21578;47.892;9.970;2024-03-02T13:05:56;11.20;96.60
35463;DHT22;21578;47.892;9.970;2024-03-02T13:10:43;11.20;96.60
35463;DHT22;21578;47.892;9.970;2024-03-02T13:15:32;11.20;96.60
35463;DHT22;21578;47.892;9.970;2024-03-02T13:20:21;11.20;96.60
35463;DHT22;21578;47.892;9.970;2024-03-02T13:25:08;11.30;96.60
35463;DHT22;21578;47.892;9.970;2024-03-02T13:29:56;11.40;96.60
35463;DHT22;21578;47.892;9.970;2024-03-02T13:34:43;11.50;96.60
35463;DHT22;21578;47.892;9.970;2024-03-02T13:39:31;11.50;96.60
35463;DHT22;21578;47.892;9.970;2024-03-02T13:44:20;11.40;96.60
35463;DHT22;21578;47.892;9.970;2024-03-02T13:49:07;11.50;96.60
35463;DHT22;21578;47.892;9.970;2024-03-02T13:53:54;11.60;96.60
35463;DHT22;21578;47.892;9.970;2024-03-02T13:58:42;11.70;96.60
35463;DHT22;21578;47.892;9.970;2024-03-02T14:03:31;11.80;96.60
35463;DHT22;21578;47.892;9.970;2024-03-02T14:08:18;11.90;96.60
35463;DHT22;21578;47.892;9.970;2024-03-02T14:13:05;12.10;96.60
35463;DHT22;21578;47.892;9.970;2024-03-02T14:17:53;12.20;96.60
35463;DHT22;21578;47.892;9.970;2024-03-02T14:22:40;12.30;96.60
35463;DHT22;21578;47.892;9.970;2024-03-02T14:27:27;12.30;96.60
35463;DHT22;21578;47.892;9.970;2024-03-02T14:32:14;12.40;96.60
35463;DHT22;21578;47.892;9.970;2024-03-02T14:37:02;12.30;96.60
35463;DHT22;21578;47.892;9.970;2024-03-02T14:41:49;12.20;96.60
35463;DHT22;21578;47.892;9.970;2024-03-02T14:46:36;12.10;96.60
35463;DHT22;21578;47.892;9.970;2024-03-02T14:51:23;12.10;96.60
35463;DHT22;21578;47.892;9.970;2024-03-02T14:56:12;12.00;96.60
35463;DHT22;21578;47.892;9.970;2024-03-02T15:00:59;12.00;96.60
35463;DHT22;21578;47.892;9.970;2024-03-02T15:05:46;11.80;96.60
35463;DHT22;21578;47.892;9.970;2024-03-02T15:10:37;11.70;96.60
35463;DHT22;21578;47.892;9.970;2024-03-02T15:15:25;11.60;96.60
35463;DHT22;21578;47.892;9.970;2024-03-02T15:20:12;11.70;96.60
35463;DHT22;21578;47.892;9.970;2024-03-02T15:24:59;11.70;96.60
35463;DHT22;21578;47.892;9.970;2024-03-02T15:29:46;11.70;96.60
35463;DHT22;21578;47.892;9.970;2024-03-02T15:34:35;11.70;96.60
35463;DHT22;21578;47.892;9.970;2024-03-02T15:39:21;11.70;96.60
35463;DHT22;21578;47.892;9.970;2024-03-02T15:44:08;11.70;96.60
35463;DHT22;21578;47.892;9.970;2024-03-02T15:48:55;11.60;96.60
35463;DHT22;21578;47.892;9.970;2024-03-02T15:53:44;11.60;96.60
35463;DHT22;21578;47.892;9.970;2024-03-02T15:58:31;11.50;96.60
35463;DHT22;21578;47.892;9.970;2024-03-02T16:03:20;11.40;96.60
35463;DHT22;21578;47.892;9.970;2024-03-02T16:08:07;11.40;96.60
35463;DHT22;21578;47.892;9.970;2024-03-02T16:12:55;11.30;96.60
35463;DHT22;21578;47.892;9.970;2024-03-02T16:17:45;11.30;96.60
35463;DHT22;21578;47.892;9.970;2024-03-02T16:22:32;11.20;96.60
35463;DHT22;21578;47.892;9.970;2024-03-02T16:27:19;11.10;96.60
35463;DHT22;21578;47.892;9.970;2024-03-02T16:32:07;11.10;96.60
35463;DHT22;21578;47.892;9.970;2024-03-02T16:36:54;11.00;96.60
35463;DHT22;21578;47.892;9.970;2024-03-02T16:41:41;10.90;96.60
35463;DHT22;21578;47.892;9.970;2024-03-02T16:46:32;10.80;96.60
35463;DHT22;21578;47.892;9.970;2024-03-02T16:51:20;10.70;96.60
35463;DHT22;21578;47.892;9.970;2024-03-02T16:56:07;10.60;96.60
35463;DHT22;21578;47.892;9.970;2024-03-02T17:00:54;10.50;96.60
35463;DHT22;21578;47.892;9.970;2024-03-02T17:05:41;10.40;96.60
35463;DHT22;21578;47.892;9.970;2024-03-02T17:10:29;10.40;96.60
35463;DHT22;21578;47.892;9.970;2024-03-02T17:15:16;10.30;96.60
35463;DHT22;21578;47.892;9.970;2024-03-02T17:20:04;10.20;96.60
35463;DHT22;21578;47.892;9.970;2024-03-02T17:24:54;10.10;96.60
35463;DHT22;21578;47.892;9.970;2024-03-02T17:29:42;10.00;96.60
35463;DHT22;21578;47.892;9.970;2024-03-02T17:34:29;9.90;96.60
35463;DHT22;21578;47.892;9.970;2024-03-02T17:39:16;9.70;96.60
35463;DHT22;21578;47.892;9.970;2024-03-02T17:44:03;9.60;96.60
35463;DHT22;21578;47.892;9.970;2024-03-02T17:48:52;9.40;96.60
35463;DHT22;21578;47.892;9.970;2024-03-02T17:53:39;9.40;96.60
35463;DHT22;21578;47.892;9.970;2024-03-02T17:58:26;9.20;96.60
35463;DHT22;21578;47.892;9.970;2024-03-02T18:03:13;9.10;96.60
35463;DHT22;21578;47.892;9.970;2024-03-02T18:08:01;9.00;96.60
35463;DHT22;21578;47.892;9.970;2024-03-02T18:12:48;8.90;96.60
35463;DHT22;21578;47.892;9.970;2024-03-02T18:17:35;8.90;96.60
35463;DHT22;21578;47.892;9.970;2024-03-02T18:22:22;8.80;96.60
35463;DHT22;21578;47.892;9.970;2024-03-02T18:27:10;8.80;96.60
35463;DHT22;21578;47.892;9.970;2024-03-02T18:31:57;8.70;96.60
35463;DHT22;21578;47.892;9.970;2024-03-02T18:36:45;8.60;96.60
35463;DHT22;21578;47.892;9.970;2024-03-02T18:41:32;8.50;96.60
35463;DHT22;21578;47.892;9.970;2024-03-02T18:46:20;8.50;96.60
35463;DHT22;21578;47.892;9.970;2024-03-02T18:51:08;8.40;96.60
35463;DHT22;21578;47.892;9.970;2024-03-02T18:55:55;8.40;96.60
35463;DHT22;21578;47.892;9.970;2024-03-02T19:00:43;8.30;96.60
35463;DHT22;21578;47.892;9.970;2024-03-02T19:05:31;8.20;96.60
35463;DHT22;21578;47.892;9.970;2024-03-02T19:10:18;8.10;96.60
35463;DHT22;21578;47.892;9.970;2024-03-02T19:15:06;8.10;96.60
35463;DHT22;21578;47.892;9.970;2024-03-02T19:19:53;8.00;96.60
35463;DHT22;21578;47.892;9.970;2024-03-02T19:24:41;7.90;96.60
35463;DHT22;21578;47.892;9.970;2024-03-02T19:29:28;7.90;96.60
35463;DHT22;21578;47.892;9.970;2024-03-02T19:34:15;7.80;96.60
35463;DHT22;21578;47.892;9.970;2024-03-02T19:39:03;7.80;96.60
35463;DHT22;21578;47.892;9.970;2024-03-02T19:43:51;7.70;96.60
35463;DHT22;21578;47.892;9.970;2024-03-02T19:48:39;7.70;96.60
35463;DHT22;21578;47.892;9.970;2024-03-02T19:53:25;7.70;96.60
35463;DHT22;21578;47.892;9.970;2024-03-02T19:58:12;7.60;96.60
35463;DHT22;21578;47.892;9.970;2024-03-02T20:03:01;7.70;96.60
35463;DHT22;21578;47.892;9.970;2024-03-02T20:07:48;7.60;96.60
35463;DHT22;21578;47.892;9.970;2024-03-02T20:12:35;7.60;96.60
35463;DHT22;21578;47.892;9.970;2024-03-02T20:17:22;7.60;96.60
35463;DHT22;21578;47.892;9.970;2024-03-02T20:22:11;7.50;96.60
35463;DHT22;21578;47.892;9.970;2024-03-02T20:26:58;7.50;96.60
35463;DHT22;21578;47.892;9.970;2024-03-02T20:31:45;7.40;96.60
35463;DHT22;21578;47.892;9.970;2024-03-02T20:36:32;7.40;96.60
35463;DHT22;21578;47.892;9.970;2024-03-02T20:41:20;7.40;96.60
35463;DHT22;21578;47.892;9.970;2024-03-02T20:46:07;7.30;96.60
35463;DHT22;21578;47.892;9.970;2024-03-02T20:50:54;7.30;96.60
35463;DHT22;21578;47.892;9.970;2024-03-02T20:55:42;7.30;96.60
35463;DHT22;21578;47.892;9.970;2024-03-02T21:00:30;7.30;96.60
35463;DHT22;21578;47.892;9.970;2024-03-02T21:05:17;7.20;96.60
35463;DHT22;21578;47.892;9.970;2024-03-02T21:10:06;7.20;96.60
35463;DHT22;21578;47.892;9.970;2024-03-02T21:14:54;7.20;96.60
35463;DHT22;21578;47.892;9.970;2024-03-02T21:19:42;7.00;96.60
35463;DHT22;21578;47.892;9.970;2024-03-02T21:24:29;6.90;96.60
35463;DHT22;21578;47.892;9.970;2024-03-02T21:29:16;6.80;96.60
35463;DHT22;21578;47.892;9.970;2024-03-02T21:34:05;6.70;96.60
35463;DHT22;21578;47.892;9.970;2024-03-02T21:38:54;6.50;96.60
35463;DHT22;21578;47.892;9.970;2024-03-02T21:43:41;6.40;96.60
35463;DHT22;21578;47.892;9.970;2024-03-02T21:48:28;6.30;96.60
35463;DHT22;21578;47.892;9.970;2024-03-02T21:53:15;6.30;96.60
35463;DHT22;21578;47.892;9.970;2024-03-02T21:58:03;6.40;96.60
35463;DHT22;21578;47.892;9.970;2024-03-02T22:02:50;6.40;96.60
35463;DHT22;21578;47.892;9.970;2024-03-02T22:07:37;6.40;96.60
35463;DHT22;21578;47.892;9.970;2024-03-02T22:12:24;6.40;96.60
35463;DHT22;21578;47.892;9.970;2024-03-02T22:17:12;6.20;96.60
35463;DHT22;21578;47.892;9.970;2024-03-02T22:21:59;6.10;96.60
35463;DHT22;21578;47.892;9.970;2024-03-02T22:26:46;6.00;96.60
35463;DHT22;21578;47.892;9.970;2024-03-02T22:31:33;5.90;96.60
35463;DHT22;21578;47.892;9.970;2024-03-02T22:36:22;5.90;96.60
35463;DHT22;21578;47.892;9.970;2024-03-02T22:41:08;5.80;96.60
35463;DHT22;21578;47.892;9.970;2024-03-02T22:45:55;5.80;96.60
35463;DHT22;21578;47.892;9.970;2024-03-02T22:50:43;5.70;96.60
35463;DHT22;21578;47.892;9.970;2024-03-02T22:55:31;5.70;96.60
35463;DHT22;21578;47.892;9.970;2024-03-02T23:00:19;5.60;96.60
35463;DHT22;21578;47.892;9.970;2024-03-02T23:05:19;5.50;96.60
35463;DHT22;21578;47.892;9.970;2024-03-02T23:10:07;5.50;96.60
35463;DHT22;21578;47.892;9.970;2024-03-02T23:14:56;5.40;96.60
35463;DHT22;21578;47.892;9.970;2024-03-02T23:19:43;5.40;96.60
35463;DHT22;21578;47.892;9.970;2024-03-02T23:24:30;5.30;96.60
35463;DHT22;21578;47.892;9.970;2024-03-02T23:29:17;5.20;96.60
35463;DHT22;21578;47.892;9.970;2024-03-02T23:34:06;5.30;96.60
35463;DHT22;21578;47.892;9.970;2024-03-02T23:38:53;5.10;96.60
35463;DHT22;21578;47.892;9.970;2024-03-02T23:43:40;5.00;96.60
35463;DHT22;21578;47.892;9.970;2024-03-02T23:48:27;5.00;96.60
35463;DHT22;21578;47.892;9.970;2024-03-02T23:53:15;4.90;96.60
35463;DHT22;21578;47.892;9.970;2024-03-02T23:58:02;4.90;96.60
